sensor_id;sensor_type;location;lat;lon;timestamp;temperature;humidity
5617;DHT22;2830;50.656;7.568;2024-02-21T00:00:36;7.10;99.90
5617;DHT22;2830;50.656;7.568;2024-02-21T00:03:05;7.10;99.90
5617;DHT22;2830;50.656;7.568;2024-02-21T00:05:31;7.10;99.90
5617;DHT22;2830;50.656;7.568;2024-02-21T00:07:59;7.10;99.90
5617;DHT22;2830;50.656;7.568;2024-02-21T00:10:26;7.10;99.90
5617;DHT22;2830;50.656;7.568;2024-02-21T00:12:53;7.10;99.90
5617;DHT22;2830;50.656;7.568;2024-02-21T00:15:21;7.20;99.90
5617;DHT22;2830;50.656;7.568;2024-02-21T00:17:49;7.20;99.90
5617;DHT22;2830;50.656;7.568;2024-02-21T00:20:16;7.20;99.90
5617;DHT22;2830;50.656;7.568;2024-02-21T00:22:44;7.20;99.90
5617;DHT22;2830;50.656;7.568;2024-02-21T00:25:11;7.20;99.90
5617;DHT22;2830;50.656;7.568;2024-02-21T00:27:38;7.20;99.90
5617;DHT22;2830;50.656;7.568;2024-02-21T00:30:08;7.30;99.90
5617;DHT22;2830;50.656;7.568;2024-02-21T00:32:35;7.20;99.90
5617;DHT22;2830;50.656;7.568;2024-02-21T00:35:02;7.30;99.90
5617;DHT22;2830;50.656;7.568;2024-02-21T00:37:30;7.30;99.90
5617;DHT22;2830;50.656;7.568;2024-02-21T00:39:57;7.30;99.90
5617;DHT22;2830;50.656;7.568;2024-02-21T00:42:24;7.30;99.90
5617;DHT22;2830;50.656;7.568;2024-02-21T00:44:51;7.30;99.90
5617;DHT22;2830;50.656;7.568;2024-02-21T00:47:18;7.30;99.90
5617;DHT22;2830;50.656;7.568;2024-02-21T00:49:45;7.30;99.90
5617;DHT22;2830;50.656;7.568;2024-02-21T00:52:12;7.30;99.90
5617;DHT22;2830;50.656;7.568;2024-02-21T00:54:39;7.30;99.90
5617;DHT22;2830;50.656;7.568;2024-02-21T00:57:18;7.30;99.90
5617;DHT22;2830;50.656;7.568;2024-02-21T00:59:45;7.30;99.90
5617;DHT22;2830;50.656;7.568;2024-02-21T01:02:12;7.30;99.90
5617;DHT22;2830;50.656;7.568;2024-02-21T01:04:39;7.30;99.90
5617;DHT22;2830;50.656;7.568;2024-02-21T01:07:06;7.30;99.90
5617;DHT22;2830;50.656;7.568;2024-02-21T01:09:33;7.30;99.90
5617;DHT22;2830;50.656;7.568;2024-02-21T01:12:00;7.30;99.90
5617;DHT22;2830;50.656;7.568;2024-02-21T01:14:27;7.30;99.90
5617;DHT22;2830;50.656;7.568;2024-02-21T01:16:54;7.30;99.90
5617;DHT22;2830;50.656;7.568;2024-02-21T01:19:21;7.30;99.90
5617;DHT22;2830;50.656;7.568;2024-02-21T01:21:48;7.30;99.90
5617;DHT22;2830;50.656;7.568;2024-02-21T01:24:15;7.30;99.90
5617;DHT22;2830;50.656;7.568;2024-02-21T01:26:42;7.30;99.90
5617;DHT22;2830;50.656;7.568;2024-02-21T01:29:09;7.30;99.90
5617;DHT22;2830;50.656;7.568;2024-02-21T01:31:36;7.30;99.90
5617;DHT22;2830;50.656;7.568;2024-02-21T01:34:03;7.30;99.90
5617;DHT22;2830;50.656;7.568;2024-02-21T01:36:30;7.30;99.90
5617;DHT22;2830;50.656;7.568;2024-02-21T01:38:56;7.30;99.90
5617;DHT22;2830;50.656;7.568;2024-02-21T01:41:23;7.30;99.90
5617;DHT22;2830;50.656;7.568;2024-02-21T01:43:51;7.30;99.90
5617;DHT22;2830;50.656;7.568;2024-02-21T01:46:18;7.30;99.90
5617;DHT22;2830;50.656;7.568;2024-02-21T01:48:45;7.20;99.90
5617;DHT22;2830;50.656;7.568;2024-02-21T01:51:13;7.20;99.90
5617;DHT22;2830;50.656;7.568;2024-02-21T01:53:44;7.20;99.90
5617;DHT22;2830;50.656;7.568;2024-02-21T01:56:12;7.20;99.90
5617;DHT22;2830;50.656;7.568;2024-02-21T01:58:40;7.20;99.90
5617;DHT22;2830;50.656;7.568;2024-02-21T02:01:10;7.20;99.90
5617;DHT22;2830;50.656;7.568;2024-02-21T02:03:37;7.20;99.90
5617;DHT22;2830;50.656;7.568;2024-02-21T02:06:07;7.20;99.90
5617;DHT22;2830;50.656;7.568;2024-02-21T02:08:35;7.20;99.90
5617;DHT22;2830;50.656;7.568;2024-02-21T02:11:02;7.20;99.90
5617;DHT22;2830;50.656;7.568;2024-02-21T02:13:29;7.20;99.90
5617;DHT22;2830;50.656;7.568;2024-02-21T02:15:56;7.20;99.90
5617;DHT22;2830;50.656;7.568;2024-02-21T02:18:23;7.30;99.90
5617;DHT22;2830;50.656;7.568;2024-02-21T02:20:50;7.20;99.90
5617;DHT22;2830;50.656;7.568;2024-02-21T02:23:31;7.20;99.90
5617;DHT22;2830;50.656;7.568;2024-02-21T02:25:58;7.20;99.90
5617;DHT22;2830;50.656;7.568;2024-02-21T02:28:26;7.20;99.90
5617;DHT22;2830;50.656;7.568;2024-02-21T02:30:53;7.10;99.90
5617;DHT22;2830;50.656;7.568;2024-02-21T02:33:19;7.20;99.90
5617;DHT22;2830;50.656;7.568;2024-02-21T02:35:47;7.20;99.90
5617;DHT22;2830;50.656;7.568;2024-02-21T02:38:14;7.20;99.90
5617;DHT22;2830;50.656;7.568;2024-02-21T02:40:41;7.20;99.90
5617;DHT22;2830;50.656;7.568;2024-02-21T02:43:09;7.20;99.90
5617;DHT22;2830;50.656;7.568;2024-02-21T02:45:36;7.10;99.90
5617;DHT22;2830;50.656;7.568;2024-02-21T02:48:03;7.10;99.90
5617;DHT22;2830;50.656;7.568;2024-02-21T02:50:31;7.10;99.90
5617;DHT22;2830;50.656;7.568;2024-02-21T02:52:58;7.10;99.90
5617;DHT22;2830;50.656;7.568;2024-02-21T02:55:25;7.10;99.90
5617;DHT22;2830;50.656;7.568;2024-02-21T02:57:53;7.10;99.90
5617;DHT22;2830;50.656;7.568;2024-02-21T03:00:20;7.10;99.90
5617;DHT22;2830;50.656;7.568;2024-02-21T03:02:49;7.10;99.90
5617;DHT22;2830;50.656;7.568;2024-02-21T03:05:20;7.10;99.90
5617;DHT22;2830;50.656;7.568;2024-02-21T03:07:48;7.10;99.90
5617;DHT22;2830;50.656;7.568;2024-02-21T03:10:18;7.10;99.90
5617;DHT22;2830;50.656;7.568;2024-02-21T03:12:45;7.10;99.90
5617;DHT22;2830;50.656;7.568;2024-02-21T03:15:13;7.10;99.90
5617;DHT22;2830;50.656;7.568;2024-02-21T03:17:41;7.10;99.90
5617;DHT22;2830;50.656;7.568;2024-02-21T03:20:08;7.10;99.90
5617;DHT22;2830;50.656;7.568;2024-02-21T03:22:38;7.10;99.90
5617;DHT22;2830;50.656;7.568;2024-02-21T03:25:05;7.00;99.90
5617;DHT22;2830;50.656;7.568;2024-02-21T03:27:33;7.00;99.90
5617;DHT22;2830;50.656;7.568;2024-02-21T03:30:00;7.00;99.90
5617;DHT22;2830;50.656;7.568;2024-02-21T03:32:27;7.00;99.90
5617;DHT22;2830;50.656;7.568;2024-02-21T03:34:55;7.10;99.90
5617;DHT22;2830;50.656;7.568;2024-02-21T03:37:23;7.00;99.90
5617;DHT22;2830;50.656;7.568;2024-02-21T03:39:49;7.00;99.90
5617;DHT22;2830;50.656;7.568;2024-02-21T03:42:17;7.00;99.90
5617;DHT22;2830;50.656;7.568;2024-02-21T03:44:44;7.00;99.90
5617;DHT22;2830;50.656;7.568;2024-02-21T03:47:11;7.00;99.90
5617;DHT22;2830;50.656;7.568;2024-02-21T03:49:38;7.00;99.90
5617;DHT22;2830;50.656;7.568;2024-02-21T03:52:06;7.00;99.90
5617;DHT22;2830;50.656;7.568;2024-02-21T03:54:33;7.00;99.90
5617;DHT22;2830;50.656;7.568;2024-02-21T03:57:00;7.00;99.90
5617;DHT22;2830;50.656;7.568;2024-02-21T03:59:26;7.00;99.90
5617;DHT22;2830;50.656;7.568;2024-02-21T04:01:53;7.00;99.90
5617;DHT22;2830;50.656;7.568;2024-02-21T04:04:21;7.00;99.90
5617;DHT22;2830;50.656;7.568;2024-02-21T04:06:49;7.00;99.90
5617;DHT22;2830;50.656;7.568;2024-02-21T04:09:16;7.00;99.90
5617;DHT22;2830;50.656;7.568;2024-02-21T04:11:43;7.00;99.90
5617;DHT22;2830;50.656;7.568;2024-02-21T04:14:11;7.00;99.90
5617;DHT22;2830;50.656;7.568;2024-02-21T04:16:40;7.00;99.90
5617;DHT22;2830;50.656;7.568;2024-02-21T04:19:08;7.00;99.90
5617;DHT22;2830;50.656;7.568;2024-02-21T04:21:35;7.00;99.90
5617;DHT22;2830;50.656;7.568;2024-02-21T04:24:02;7.00;99.90
5617;DHT22;2830;50.656;7.568;2024-02-21T04:26:33;7.00;99.90
5617;DHT22;2830;50.656;7.568;2024-02-21T04:29:00;7.00;99.90
5617;DHT22;2830;50.656;7.568;2024-02-21T04:31:27;7.00;99.90
5617;DHT22;2830;50.656;7.568;2024-02-21T04:33:55;7.00;99.90
5617;DHT22;2830;50.656;7.568;2024-02-21T04:36:22;7.00;99.90
5617;DHT22;2830;50.656;7.568;2024-02-21T04:38:48;7.00;99.90
5617;DHT22;2830;50.656;7.568;2024-02-21T04:41:16;7.10;99.90
5617;DHT22;2830;50.656;7.568;2024-02-21T04:43:46;7.10;99.90
5617;DHT22;2830;50.656;7.568;2024-02-21T04:46:13;7.00;99.90
5617;DHT22;2830;50.656;7.568;2024-02-21T04:48:40;7.00;99.90
5617;DHT22;2830;50.656;7.568;2024-02-21T04:51:07;7.10;99.90
5617;DHT22;2830;50.656;7.568;2024-02-21T04:53:34;7.00;99.90
5617;DHT22;2830;50.656;7.568;2024-02-21T04:56:00;7.00;99.90
5617;DHT22;2830;50.656;7.568;2024-02-21T04:58:28;7.00;99.90
5617;DHT22;2830;50.656;7.568;2024-02-21T05:00:54;7.00;99.90
5617;DHT22;2830;50.656;7.568;2024-02-21T05:03:22;7.10;99.90
5617;DHT22;2830;50.656;7.568;2024-02-21T05:05:49;7.00;99.90
5617;DHT22;2830;50.656;7.568;2024-02-21T05:08:16;7.00;99.90
5617;DHT22;2830;50.656;7.568;2024-02-21T05:10:43;7.00;99.90
5617;DHT22;2830;50.656;7.568;2024-02-21T05:13:10;7.10;99.90
5617;DHT22;2830;50.656;7.568;2024-02-21T05:15:37;7.10;99.90
5617;DHT22;2830;50.656;7.568;2024-02-21T05:18:04;7.00;99.90
5617;DHT22;2830;50.656;7.568;2024-02-21T05:20:31;7.10;99.90
5617;DHT22;2830;50.656;7.568;2024-02-21T05:22:58;7.10;99.90
5617;DHT22;2830;50.656;7.568;2024-02-21T05:25:25;7.10;99.90
5617;DHT22;2830;50.656;7.568;2024-02-21T05:27:52;7.10;99.90
5617;DHT22;2830;50.656;7.568;2024-02-21T05:30:20;7.00;99.90
5617;DHT22;2830;50.656;7.568;2024-02-21T05:32:47;7.00;99.90
5617;DHT22;2830;50.656;7.568;2024-02-21T05:35:14;7.10;99.90
5617;DHT22;2830;50.656;7.568;2024-02-21T05:37:41;7.10;99.90
5617;DHT22;2830;50.656;7.568;2024-02-21T05:40:09;7.10;99.90
5617;DHT22;2830;50.656;7.568;2024-02-21T05:42:36;7.10;99.90
5617;DHT22;2830;50.656;7.568;2024-02-21T05:45:03;7.10;99.90
5617;DHT22;2830;50.656;7.568;2024-02-21T05:47:30;7.10;99.90
5617;DHT22;2830;50.656;7.568;2024-02-21T05:49:57;7.10;99.90
5617;DHT22;2830;50.656;7.568;2024-02-21T05:52:24;7.10;99.90
5617;DHT22;2830;50.656;7.568;2024-02-21T05:54:51;7.10;99.90
5617;DHT22;2830;50.656;7.568;2024-02-21T05:57:18;7.10;99.90
5617;DHT22;2830;50.656;7.568;2024-02-21T05:59:45;7.10;99.90
5617;DHT22;2830;50.656;7.568;2024-02-21T06:02:12;7.10;99.90
5617;DHT22;2830;50.656;7.568;2024-02-21T06:04:39;7.10;99.90
5617;DHT22;2830;50.656;7.568;2024-02-21T06:07:07;7.10;99.90
5617;DHT22;2830;50.656;7.568;2024-02-21T06:09:34;7.10;99.90
5617;DHT22;2830;50.656;7.568;2024-02-21T06:12:01;7.10;99.90
5617;DHT22;2830;50.656;7.568;2024-02-21T06:14:28;7.10;99.90
5617;DHT22;2830;50.656;7.568;2024-02-21T06:16:55;7.10;99.90
5617;DHT22;2830;50.656;7.568;2024-02-21T06:19:22;7.10;99.90
5617;DHT22;2830;50.656;7.568;2024-02-21T06:21:49;7.10;99.90
5617;DHT22;2830;50.656;7.568;2024-02-21T06:24:15;7.10;99.90
5617;DHT22;2830;50.656;7.568;2024-02-21T06:26:42;7.20;99.90
5617;DHT22;2830;50.656;7.568;2024-02-21T06:29:11;7.10;99.90
5617;DHT22;2830;50.656;7.568;2024-02-21T06:31:38;7.10;99.90
5617;DHT22;2830;50.656;7.568;2024-02-21T06:34:05;7.10;99.90
5617;DHT22;2830;50.656;7.568;2024-02-21T06:36:32;7.10;99.90
5617;DHT22;2830;50.656;7.568;2024-02-21T06:38:59;7.10;99.90
5617;DHT22;2830;50.656;7.568;2024-02-21T06:41:26;7.10;99.90
5617;DHT22;2830;50.656;7.568;2024-02-21T06:43:53;7.10;99.90
5617;DHT22;2830;50.656;7.568;2024-02-21T06:46:27;7.10;99.90
5617;DHT22;2830;50.656;7.568;2024-02-21T06:48:58;7.10;99.90
5617;DHT22;2830;50.656;7.568;2024-02-21T06:51:25;7.10;99.90
5617;DHT22;2830;50.656;7.568;2024-02-21T06:53:53;7.10;99.90
5617;DHT22;2830;50.656;7.568;2024-02-21T06:56:20;7.10;99.90
5617;DHT22;2830;50.656;7.568;2024-02-21T06:58:46;7.10;99.90
5617;DHT22;2830;50.656;7.568;2024-02-21T07:01:13;7.10;99.90
5617;DHT22;2830;50.656;7.568;2024-02-21T07:03:40;7.10;99.90
5617;DHT22;2830;50.656;7.568;2024-02-21T07:06:07;7.10;99.90
5617;DHT22;2830;50.656;7.568;2024-02-21T07:08:35;7.10;99.90
5617;DHT22;2830;50.656;7.568;2024-02-21T07:11:01;7.20;99.90
5617;DHT22;2830;50.656;7.568;2024-02-21T07:13:28;7.20;99.90
5617;DHT22;2830;50.656;7.568;2024-02-21T07:15:55;7.20;99.90
5617;DHT22;2830;50.656;7.568;2024-02-21T07:18:22;7.20;99.90
5617;DHT22;2830;50.656;7.568;2024-02-21T07:20:49;7.10;99.90
5617;DHT22;2830;50.656;7.568;2024-02-21T07:23:16;7.10;99.90
5617;DHT22;2830;50.656;7.568;2024-02-21T07:25:43;7.10;99.90
5617;DHT22;2830;50.656;7.568;2024-02-21T07:28:10;7.10;99.90
5617;DHT22;2830;50.656;7.568;2024-02-21T07:30:37;7.20;99.90
5617;DHT22;2830;50.656;7.568;2024-02-21T07:33:04;7.20;99.90
5617;DHT22;2830;50.656;7.568;2024-02-21T07:35:31;7.20;99.90
5617;DHT22;2830;50.656;7.568;2024-02-21T07:37:58;7.20;99.90
5617;DHT22;2830;50.656;7.568;2024-02-21T07:40:25;7.20;99.90
5617;DHT22;2830;50.656;7.568;2024-02-21T07:42:52;7.20;99.90
5617;DHT22;2830;50.656;7.568;2024-02-21T07:45:19;7.20;99.90
5617;DHT22;2830;50.656;7.568;2024-02-21T07:47:48;7.20;99.90
5617;DHT22;2830;50.656;7.568;2024-02-21T07:50:15;7.30;99.90
5617;DHT22;2830;50.656;7.568;2024-02-21T07:52:43;7.30;99.90
5617;DHT22;2830;50.656;7.568;2024-02-21T07:55:10;7.30;99.90
5617;DHT22;2830;50.656;7.568;2024-02-21T07:57:37;7.30;99.90
5617;DHT22;2830;50.656;7.568;2024-02-21T08:00:04;7.30;99.90
5617;DHT22;2830;50.656;7.568;2024-02-21T08:02:31;7.20;99.90
5617;DHT22;2830;50.656;7.568;2024-02-21T08:04:58;7.30;99.90
5617;DHT22;2830;50.656;7.568;2024-02-21T08:07:25;7.30;99.90
5617;DHT22;2830;50.656;7.568;2024-02-21T08:09:52;7.30;99.90
5617;DHT22;2830;50.656;7.568;2024-02-21T08:12:19;7.30;99.90
5617;DHT22;2830;50.656;7.568;2024-02-21T08:14:46;7.30;99.90
5617;DHT22;2830;50.656;7.568;2024-02-21T08:17:12;7.30;99.90
5617;DHT22;2830;50.656;7.568;2024-02-21T08:19:39;7.40;99.90
5617;DHT22;2830;50.656;7.568;2024-02-21T08:22:06;7.30;99.90
5617;DHT22;2830;50.656;7.568;2024-02-21T08:24:33;7.40;99.90
5617;DHT22;2830;50.656;7.568;2024-02-21T08:27:00;7.40;99.90
5617;DHT22;2830;50.656;7.568;2024-02-21T08:29:27;7.50;99.90
5617;DHT22;2830;50.656;7.568;2024-02-21T08:31:54;7.60;99.90
5617;DHT22;2830;50.656;7.568;2024-02-21T08:34:21;7.60;99.90
5617;DHT22;2830;50.656;7.568;2024-02-21T08:36:48;7.70;99.90
5617;DHT22;2830;50.656;7.568;2024-02-21T08:39:15;7.90;99.90
5617;DHT22;2830;50.656;7.568;2024-02-21T08:41:44;8.10;99.90
5617;DHT22;2830;50.656;7.568;2024-02-21T08:44:23;8.30;99.90
5617;DHT22;2830;50.656;7.568;2024-02-21T08:46:54;8.50;99.90
5617;DHT22;2830;50.656;7.568;2024-02-21T08:49:22;8.70;99.90
5617;DHT22;2830;50.656;7.568;2024-02-21T08:51:49;9.00;99.90
5617;DHT22;2830;50.656;7.568;2024-02-21T08:54:16;9.20;99.90
5617;DHT22;2830;50.656;7.568;2024-02-21T08:56:43;9.30;99.90
5617;DHT22;2830;50.656;7.568;2024-02-21T08:59:10;9.50;99.90
5617;DHT22;2830;50.656;7.568;2024-02-21T09:01:38;9.80;99.90
5617;DHT22;2830;50.656;7.568;2024-02-21T09:04:05;10.00;99.90
5617;DHT22;2830;50.656;7.568;2024-02-21T09:06:32;10.30;99.90
5617;DHT22;2830;50.656;7.568;2024-02-21T09:09:00;10.60;99.90
5617;DHT22;2830;50.656;7.568;2024-02-21T09:11:27;10.20;99.90
5617;DHT22;2830;50.656;7.568;2024-02-21T09:13:55;10.00;99.90
5617;DHT22;2830;50.656;7.568;2024-02-21T09:16:22;9.90;99.90
5617;DHT22;2830;50.656;7.568;2024-02-21T09:18:50;9.80;99.90
5617;DHT22;2830;50.656;7.568;2024-02-21T09:21:18;9.90;99.90
5617;DHT22;2830;50.656;7.568;2024-02-21T09:23:45;10.00;99.90
5617;DHT22;2830;50.656;7.568;2024-02-21T09:26:12;10.00;99.90
5617;DHT22;2830;50.656;7.568;2024-02-21T09:28:43;9.90;99.90
5617;DHT22;2830;50.656;7.568;2024-02-21T09:31:13;10.00;99.90
5617;DHT22;2830;50.656;7.568;2024-02-21T09:33:40;10.10;99.90
5617;DHT22;2830;50.656;7.568;2024-02-21T09:36:08;10.10;99.90
5617;DHT22;2830;50.656;7.568;2024-02-21T09:38:35;10.20;99.90
5617;DHT22;2830;50.656;7.568;2024-02-21T09:41:18;10.10;99.90
5617;DHT22;2830;50.656;7.568;2024-02-21T09:43:52;10.10;99.90
5617;DHT22;2830;50.656;7.568;2024-02-21T09:51:37;9.80;99.90
5617;DHT22;2830;50.656;7.568;2024-02-21T09:54:06;9.70;99.90
5617;DHT22;2830;50.656;7.568;2024-02-21T09:56:44;9.70;99.90
5617;DHT22;2830;50.656;7.568;2024-02-21T09:59:11;9.80;99.90
5617;DHT22;2830;50.656;7.568;2024-02-21T10:01:38;9.70;99.90
5617;DHT22;2830;50.656;7.568;2024-02-21T10:04:06;9.70;99.90
5617;DHT22;2830;50.656;7.568;2024-02-21T10:06:33;9.80;99.90
5617;DHT22;2830;50.656;7.568;2024-02-21T10:09:00;9.60;99.90
5617;DHT22;2830;50.656;7.568;2024-02-21T10:11:27;9.70;99.90
5617;DHT22;2830;50.656;7.568;2024-02-21T10:14:05;9.70;99.90
5617;DHT22;2830;50.656;7.568;2024-02-21T10:16:33;9.80;99.90
5617;DHT22;2830;50.656;7.568;2024-02-21T10:19:00;9.80;99.90
5617;DHT22;2830;50.656;7.568;2024-02-21T10:21:27;9.90;99.90
5617;DHT22;2830;50.656;7.568;2024-02-21T10:23:54;10.00;99.90
5617;DHT22;2830;50.656;7.568;2024-02-21T10:26:22;9.80;99.90
5617;DHT22;2830;50.656;7.568;2024-02-21T10:28:49;10.00;99.90
5617;DHT22;2830;50.656;7.568;2024-02-21T10:31:28;10.10;99.90
5617;DHT22;2830;50.656;7.568;2024-02-21T10:33:59;10.10;99.90
5617;DHT22;2830;50.656;7.568;2024-02-21T10:36:26;10.50;99.90
5617;DHT22;2830;50.656;7.568;2024-02-21T10:38:54;10.80;99.90
5617;DHT22;2830;50.656;7.568;2024-02-21T10:41:22;10.60;99.90
5617;DHT22;2830;50.656;7.568;2024-02-21T10:43:51;10.50;99.90
5617;DHT22;2830;50.656;7.568;2024-02-21T10:46:23;10.60;99.90
5617;DHT22;2830;50.656;7.568;2024-02-21T10:51:29;10.30;99.90
5617;DHT22;2830;50.656;7.568;2024-02-21T10:56:39;10.50;99.90
5617;DHT22;2830;50.656;7.568;2024-02-21T10:59:08;10.70;99.90
5617;DHT22;2830;50.656;7.568;2024-02-21T11:01:35;10.70;99.90
5617;DHT22;2830;50.656;7.568;2024-02-21T11:04:05;10.50;99.90
5617;DHT22;2830;50.656;7.568;2024-02-21T11:06:37;10.60;99.90
5617;DHT22;2830;50.656;7.568;2024-02-21T11:09:08;10.40;99.90
5617;DHT22;2830;50.656;7.568;2024-02-21T11:11:35;10.40;99.90
5617;DHT22;2830;50.656;7.568;2024-02-21T11:14:11;10.30;99.90
5617;DHT22;2830;50.656;7.568;2024-02-21T11:16:41;10.20;99.90
5617;DHT22;2830;50.656;7.568;2024-02-21T11:19:23;10.30;99.90
5617;DHT22;2830;50.656;7.568;2024-02-21T11:21:52;10.40;99.90
5617;DHT22;2830;50.656;7.568;2024-02-21T11:24:29;10.50;99.90
5617;DHT22;2830;50.656;7.568;2024-02-21T11:27:09;10.40;99.90
5617;DHT22;2830;50.656;7.568;2024-02-21T11:29:46;10.50;99.90
5617;DHT22;2830;50.656;7.568;2024-02-21T11:32:17;10.50;99.90
5617;DHT22;2830;50.656;7.568;2024-02-21T11:35:02;10.60;99.90
5617;DHT22;2830;50.656;7.568;2024-02-21T11:37:34;11.00;99.90
5617;DHT22;2830;50.656;7.568;2024-02-21T11:40:01;11.60;99.90
5617;DHT22;2830;50.656;7.568;2024-02-21T11:42:30;11.60;99.90
5617;DHT22;2830;50.656;7.568;2024-02-21T11:44:59;11.70;99.90
5617;DHT22;2830;50.656;7.568;2024-02-21T11:47:28;12.50;99.90
5617;DHT22;2830;50.656;7.568;2024-02-21T11:49:56;13.10;99.90
5617;DHT22;2830;50.656;7.568;2024-02-21T11:52:24;13.20;99.90
5617;DHT22;2830;50.656;7.568;2024-02-21T11:54:53;13.00;99.90
5617;DHT22;2830;50.656;7.568;2024-02-21T11:57:21;13.00;99.90
5617;DHT22;2830;50.656;7.568;2024-02-21T11:59:48;12.90;99.90
5617;DHT22;2830;50.656;7.568;2024-02-21T12:02:23;12.90;99.90
5617;DHT22;2830;50.656;7.568;2024-02-21T12:04:51;12.80;99.90
5617;DHT22;2830;50.656;7.568;2024-02-21T12:07:18;12.00;99.90
5617;DHT22;2830;50.656;7.568;2024-02-21T12:09:45;11.60;99.90
5617;DHT22;2830;50.656;7.568;2024-02-21T12:12:12;11.20;99.90
5617;DHT22;2830;50.656;7.568;2024-02-21T12:14:39;11.10;99.90
5617;DHT22;2830;50.656;7.568;2024-02-21T12:17:06;11.10;99.90
5617;DHT22;2830;50.656;7.568;2024-02-21T12:19:34;11.00;99.90
5617;DHT22;2830;50.656;7.568;2024-02-21T12:22:02;10.80;99.90
5617;DHT22;2830;50.656;7.568;2024-02-21T12:24:33;10.60;99.90
5617;DHT22;2830;50.656;7.568;2024-02-21T12:27:00;10.60;99.90
5617;DHT22;2830;50.656;7.568;2024-02-21T12:29:30;10.50;99.90
5617;DHT22;2830;50.656;7.568;2024-02-21T12:31:57;10.30;99.90
5617;DHT22;2830;50.656;7.568;2024-02-21T12:34:24;10.40;99.90
5617;DHT22;2830;50.656;7.568;2024-02-21T12:37:10;10.40;99.90
5617;DHT22;2830;50.656;7.568;2024-02-21T12:39:40;10.50;99.90
5617;DHT22;2830;50.656;7.568;2024-02-21T12:42:07;10.60;99.90
5617;DHT22;2830;50.656;7.568;2024-02-21T12:44:34;10.60;99.90
5617;DHT22;2830;50.656;7.568;2024-02-21T12:47:01;10.50;99.90
5617;DHT22;2830;50.656;7.568;2024-02-21T12:49:28;10.40;99.90
5617;DHT22;2830;50.656;7.568;2024-02-21T12:51:56;10.40;99.90
5617;DHT22;2830;50.656;7.568;2024-02-21T12:54:23;10.30;99.90
5617;DHT22;2830;50.656;7.568;2024-02-21T12:56:50;10.50;99.90
5617;DHT22;2830;50.656;7.568;2024-02-21T12:59:17;10.50;99.90
5617;DHT22;2830;50.656;7.568;2024-02-21T13:01:44;10.40;99.90
5617;DHT22;2830;50.656;7.568;2024-02-21T13:04:11;10.40;99.90
5617;DHT22;2830;50.656;7.568;2024-02-21T13:06:39;10.40;99.90
5617;DHT22;2830;50.656;7.568;2024-02-21T13:09:06;10.50;99.90
5617;DHT22;2830;50.656;7.568;2024-02-21T13:11:35;10.50;99.90
5617;DHT22;2830;50.656;7.568;2024-02-21T13:14:02;10.40;99.90
5617;DHT22;2830;50.656;7.568;2024-02-21T13:16:29;10.30;99.90
5617;DHT22;2830;50.656;7.568;2024-02-21T13:18:56;10.30;99.90
5617;DHT22;2830;50.656;7.568;2024-02-21T13:21:23;10.30;99.90
5617;DHT22;2830;50.656;7.568;2024-02-21T13:23:52;10.30;99.90
5617;DHT22;2830;50.656;7.568;2024-02-21T13:26:19;10.30;99.90
5617;DHT22;2830;50.656;7.568;2024-02-21T13:28:46;10.40;99.90
5617;DHT22;2830;50.656;7.568;2024-02-21T13:31:15;10.40;99.90
5617;DHT22;2830;50.656;7.568;2024-02-21T13:33:43;10.50;99.90
5617;DHT22;2830;50.656;7.568;2024-02-21T13:36:12;10.50;99.90
5617;DHT22;2830;50.656;7.568;2024-02-21T13:38:39;10.50;99.90
5617;DHT22;2830;50.656;7.568;2024-02-21T13:41:06;10.40;99.90
5617;DHT22;2830;50.656;7.568;2024-02-21T13:43:34;10.40;99.90
5617;DHT22;2830;50.656;7.568;2024-02-21T13:46:01;10.30;99.90
5617;DHT22;2830;50.656;7.568;2024-02-21T13:48:36;10.40;99.90
5617;DHT22;2830;50.656;7.568;2024-02-21T13:51:04;10.50;99.90
5617;DHT22;2830;50.656;7.568;2024-02-21T13:53:31;10.60;99.90
5617;DHT22;2830;50.656;7.568;2024-02-21T13:55:58;10.50;99.90
5617;DHT22;2830;50.656;7.568;2024-02-21T13:58:25;10.40;99.90
5617;DHT22;2830;50.656;7.568;2024-02-21T14:00:53;10.40;99.90
5617;DHT22;2830;50.656;7.568;2024-02-21T14:03:21;10.40;99.90
5617;DHT22;2830;50.656;7.568;2024-02-21T14:05:48;10.30;99.90
5617;DHT22;2830;50.656;7.568;2024-02-21T14:08:15;10.20;99.90
5617;DHT22;2830;50.656;7.568;2024-02-21T14:10:42;10.20;99.90
5617;DHT22;2830;50.656;7.568;2024-02-21T14:13:09;10.20;99.90
5617;DHT22;2830;50.656;7.568;2024-02-21T14:15:36;10.20;99.90
5617;DHT22;2830;50.656;7.568;2024-02-21T14:18:04;10.30;99.90
5617;DHT22;2830;50.656;7.568;2024-02-21T14:20:36;10.20;99.90
5617;DHT22;2830;50.656;7.568;2024-02-21T14:23:03;10.20;99.90
5617;DHT22;2830;50.656;7.568;2024-02-21T14:25:31;10.10;99.90
5617;DHT22;2830;50.656;7.568;2024-02-21T14:28:00;10.10;99.90
5617;DHT22;2830;50.656;7.568;2024-02-21T14:30:30;10.10;99.90
5617;DHT22;2830;50.656;7.568;2024-02-21T14:32:57;10.10;99.90
5617;DHT22;2830;50.656;7.568;2024-02-21T14:35:24;10.10;99.90
5617;DHT22;2830;50.656;7.568;2024-02-21T14:37:52;10.10;99.90
5617;DHT22;2830;50.656;7.568;2024-02-21T14:40:24;10.10;99.90
5617;DHT22;2830;50.656;7.568;2024-02-21T14:42:51;10.10;99.90
5617;DHT22;2830;50.656;7.568;2024-02-21T14:45:19;10.20;99.90
5617;DHT22;2830;50.656;7.568;2024-02-21T14:47:46;10.10;99.90
5617;DHT22;2830;50.656;7.568;2024-02-21T14:50:13;10.10;99.90
5617;DHT22;2830;50.656;7.568;2024-02-21T14:52:40;10.10;99.90
5617;DHT22;2830;50.656;7.568;2024-02-21T14:55:07;10.10;99.90
5617;DHT22;2830;50.656;7.568;2024-02-21T14:57:35;10.10;99.90
5617;DHT22;2830;50.656;7.568;2024-02-21T15:00:05;10.10;99.90
5617;DHT22;2830;50.656;7.568;2024-02-21T15:02:35;10.10;99.90
5617;DHT22;2830;50.656;7.568;2024-02-21T15:05:01;10.10;99.90
5617;DHT22;2830;50.656;7.568;2024-02-21T15:07:31;10.10;99.90
5617;DHT22;2830;50.656;7.568;2024-02-21T15:09:58;10.10;99.90
5617;DHT22;2830;50.656;7.568;2024-02-21T15:12:25;10.10;99.90
5617;DHT22;2830;50.656;7.568;2024-02-21T15:14:52;10.10;99.90
5617;DHT22;2830;50.656;7.568;2024-02-21T15:17:19;10.10;99.90
5617;DHT22;2830;50.656;7.568;2024-02-21T15:19:46;10.10;99.90
5617;DHT22;2830;50.656;7.568;2024-02-21T15:22:14;10.10;99.90
5617;DHT22;2830;50.656;7.568;2024-02-21T15:24:42;10.10;99.90
5617;DHT22;2830;50.656;7.568;2024-02-21T15:27:09;10.00;99.90
5617;DHT22;2830;50.656;7.568;2024-02-21T15:29:37;10.00;99.90
5617;DHT22;2830;50.656;7.568;2024-02-21T15:32:04;10.10;99.90
5617;DHT22;2830;50.656;7.568;2024-02-21T15:34:31;10.10;99.90
5617;DHT22;2830;50.656;7.568;2024-02-21T15:36:58;10.10;99.90
5617;DHT22;2830;50.656;7.568;2024-02-21T15:39:26;10.00;99.90
5617;DHT22;2830;50.656;7.568;2024-02-21T15:41:54;10.00;99.90
5617;DHT22;2830;50.656;7.568;2024-02-21T15:44:22;10.00;99.90
5617;DHT22;2830;50.656;7.568;2024-02-21T15:46:49;9.90;99.90
5617;DHT22;2830;50.656;7.568;2024-02-21T15:49:18;9.90;99.90
5617;DHT22;2830;50.656;7.568;2024-02-21T15:51:45;9.90;99.90
5617;DHT22;2830;50.656;7.568;2024-02-21T15:54:12;9.90;99.90
5617;DHT22;2830;50.656;7.568;2024-02-21T15:56:44;9.80;99.90
5617;DHT22;2830;50.656;7.568;2024-02-21T15:59:14;9.80;99.90
5617;DHT22;2830;50.656;7.568;2024-02-21T16:01:41;9.80;99.90
5617;DHT22;2830;50.656;7.568;2024-02-21T16:04:09;9.80;99.90
5617;DHT22;2830;50.656;7.568;2024-02-21T16:06:36;9.80;99.90
5617;DHT22;2830;50.656;7.568;2024-02-21T16:09:03;9.80;99.90
5617;DHT22;2830;50.656;7.568;2024-02-21T16:11:32;9.80;99.90
5617;DHT22;2830;50.656;7.568;2024-02-21T16:14:01;9.80;99.90
5617;DHT22;2830;50.656;7.568;2024-02-21T16:16:31;9.80;99.90
5617;DHT22;2830;50.656;7.568;2024-02-21T16:18:58;9.70;99.90
5617;DHT22;2830;50.656;7.568;2024-02-21T16:21:26;9.70;99.90
5617;DHT22;2830;50.656;7.568;2024-02-21T16:23:53;9.70;99.90
5617;DHT22;2830;50.656;7.568;2024-02-21T16:26:21;9.60;99.90